createdAt,value
2022-08-28T00:00:28.706Z,6.30
2022-08-28T00:02:59.182Z,16.62
2022-08-28T00:05:31.874Z,9.07
2022-08-28T00:08:01.829Z,6.80
2022-08-28T00:10:32.232Z,10.95
2022-08-28T00:13:02.555Z,11.93
2022-08-28T00:15:35.360Z,11.30
2022-08-28T00:18:08.079Z,13.30
2022-08-28T00:20:39.257Z,6.97
2022-08-28T00:23:09.765Z,7.30
2022-08-28T00:25:39.590Z,10.50
2022-08-28T00:28:18.432Z,7.62
2022-08-28T00:30:48.622Z,11.10
2022-08-28T00:33:23.417Z,9.53
2022-08-28T00:35:54.097Z,8.30
2022-08-28T00:38:25.703Z,12.50
2022-08-28T00:40:58.503Z,8.10
2022-08-28T00:43:44.467Z,10.30
2022-08-28T00:46:19.803Z,14.13
2022-08-28T00:48:50.458Z,10.33
2022-08-28T00:51:38.815Z,6.63
2022-08-28T00:54:10.971Z,8.98
2022-08-28T00:56:43.922Z,8.90
2022-08-28T00:59:16.563Z,9.43
2022-08-28T01:01:48.495Z,10.10
2022-08-28T01:04:21.317Z,12.13
2022-08-28T01:06:53.890Z,9.57
2022-08-28T01:09:27.845Z,8.87
2022-08-28T01:12:02.319Z,8.80
2022-08-28T01:14:35.103Z,8.50
2022-08-28T01:17:06.540Z,6.23
2022-08-28T01:19:39.396Z,7.67
2022-08-28T01:22:21.417Z,12.93
2022-08-28T01:24:53.769Z,8.33
2022-08-28T01:27:24.007Z,6.43
2022-08-28T01:29:55.945Z,11.47
2022-08-28T01:32:31.898Z,10.27
2022-08-28T01:37:31.827Z,14.38
2022-08-28T01:40:01.428Z,9.08
2022-08-28T01:42:31.517Z,9.63
2022-08-28T01:45:01.290Z,9.50
2022-08-28T01:47:31.063Z,11.57
2022-08-28T01:50:00.887Z,10.87
2022-08-28T01:52:31.340Z,9.10
2022-08-28T01:55:01.286Z,11.60
2022-08-28T01:57:33.006Z,8.13
2022-08-28T02:00:03.058Z,8.97
2022-08-28T02:02:34.535Z,6.83
2022-08-28T02:05:04.141Z,7.70
2022-08-28T02:07:34.272Z,7.83
2022-08-28T02:10:10.101Z,7.53
2022-08-28T02:12:41.072Z,8.27
2022-08-28T02:15:11.107Z,8.90
2022-08-28T02:17:40.868Z,9.50
2022-08-28T02:20:11.718Z,11.30
2022-08-28T02:22:42.206Z,8.00
2022-08-28T02:25:13.798Z,6.65
2022-08-28T02:27:44.139Z,10.23
2022-08-28T02:30:17.825Z,10.90
2022-08-28T02:32:48.076Z,10.97
2022-08-28T02:35:19.321Z,10.23
2022-08-28T02:37:50.001Z,7.80
2022-08-28T02:40:22.448Z,6.90
2022-08-28T02:42:52.925Z,9.35
2022-08-28T02:45:22.765Z,8.53
2022-08-28T02:47:54.641Z,7.40
2022-08-28T02:50:25.161Z,8.33
2022-08-28T02:52:55.037Z,6.90
2022-08-28T02:55:24.806Z,11.83
2022-08-28T02:57:54.931Z,8.10
2022-08-28T03:00:26.898Z,7.62
2022-08-28T03:02:56.712Z,5.93
2022-08-28T03:05:26.860Z,7.80
2022-08-28T03:07:56.982Z,8.10
2022-08-28T03:10:26.818Z,7.05
2022-08-28T03:12:56.586Z,8.33
2022-08-28T03:15:26.057Z,8.03
2022-08-28T03:17:56.002Z,8.93
2022-08-28T03:20:25.662Z,7.23
2022-08-28T03:23:13.380Z,9.90
2022-08-28T03:25:43.231Z,9.10
2022-08-28T03:28:13.285Z,11.43
2022-08-28T03:30:43.238Z,6.50
2022-08-28T03:33:13.159Z,10.17
2022-08-28T03:35:42.934Z,7.23
2022-08-28T03:38:13.506Z,9.53
2022-08-28T03:40:45.444Z,9.23
2022-08-28T03:43:20.383Z,7.20
2022-08-28T03:45:53.348Z,10.03
2022-08-28T03:48:24.368Z,8.73
2022-08-28T03:50:54.588Z,7.60
2022-08-28T03:53:28.946Z,9.38
2022-08-28T03:55:58.959Z,9.57
2022-08-28T03:58:29.694Z,8.60
2022-08-28T04:00:59.541Z,8.03
2022-08-28T04:03:29.736Z,10.05
2022-08-28T04:05:59.793Z,6.10
2022-08-28T04:08:30.172Z,8.73
2022-08-28T04:11:02.687Z,8.37
2022-08-28T04:13:32.836Z,10.30
2022-08-28T04:16:11.315Z,9.97
2022-08-28T04:18:43.108Z,9.57
2022-08-28T04:21:16.282Z,8.00
2022-08-28T04:23:47.403Z,6.10
2022-08-28T04:26:20.028Z,8.00
2022-08-28T04:28:52.643Z,11.03
2022-08-28T04:31:31.112Z,9.75
2022-08-28T04:33:54.152Z,9.93
2022-08-28T04:36:24.132Z,5.65
2022-08-28T04:38:54.976Z,6.53
2022-08-28T04:41:24.500Z,9.85
2022-08-28T04:43:56.047Z,8.97
2022-08-28T04:46:26.347Z,6.65
2022-08-28T04:48:58.137Z,12.47
2022-08-28T04:51:29.368Z,10.68
2022-08-28T04:53:59.600Z,8.13
2022-08-28T04:56:29.672Z,11.05
2022-08-28T04:59:01.007Z,7.60
2022-08-28T05:01:30.865Z,10.95
2022-08-28T05:04:02.736Z,10.65
2022-08-28T05:06:34.020Z,10.65
2022-08-28T05:09:04.739Z,9.43
2022-08-28T05:11:35.202Z,10.17
2022-08-28T05:14:15.386Z,13.53
2022-08-28T05:16:45.542Z,10.27
2022-08-28T05:19:17.169Z,8.53
2022-08-28T05:21:47.269Z,13.23
2022-08-28T05:24:18.054Z,10.03
2022-08-28T05:26:48.268Z,12.17
2022-08-28T05:29:18.330Z,11.03
2022-08-28T05:31:48.347Z,8.77
2022-08-28T05:34:18.305Z,5.17
2022-08-28T05:36:48.780Z,9.93
2022-08-28T05:39:19.108Z,7.10
2022-08-28T05:41:48.618Z,7.50
2022-08-28T05:44:19.608Z,12.20
2022-08-28T05:46:49.462Z,11.60
2022-08-28T05:49:20.384Z,9.93
2022-08-28T05:51:51.137Z,7.77
2022-08-28T05:54:21.791Z,10.20
2022-08-28T05:56:51.612Z,11.33
2022-08-28T05:59:21.396Z,8.30
2022-08-28T06:01:51.369Z,13.17
2022-08-28T06:04:24.126Z,9.37
2022-08-28T06:06:54.471Z,7.73
2022-08-28T06:09:29.624Z,11.20
2022-08-28T06:12:02.691Z,6.50
2022-08-28T06:14:32.911Z,9.83
2022-08-28T06:17:05.011Z,14.80
2022-08-28T06:19:41.072Z,9.10
2022-08-28T06:22:12.174Z,10.58
2022-08-28T06:24:42.596Z,7.33
2022-08-28T06:27:12.838Z,8.07
2022-08-28T06:29:42.341Z,8.95
2022-08-28T06:32:12.142Z,7.83
2022-08-28T06:34:42.019Z,10.17
2022-08-28T06:37:11.788Z,8.47
2022-08-28T06:39:41.587Z,14.63
2022-08-28T06:42:11.619Z,9.37
2022-08-28T06:44:41.677Z,9.18
2022-08-28T06:47:11.518Z,9.77
2022-08-28T06:49:41.459Z,8.00
2022-08-28T06:52:11.606Z,8.83
2022-08-28T06:54:41.378Z,5.83
2022-08-28T06:57:13.215Z,6.00
2022-08-28T06:59:42.985Z,7.30
2022-08-28T07:02:12.613Z,13.32
2022-08-28T07:04:42.761Z,8.53
2022-08-28T07:07:13.048Z,8.77
2022-08-28T07:09:44.185Z,6.73
2022-08-28T07:12:15.880Z,6.40
2022-08-28T07:14:45.741Z,14.83
2022-08-28T07:17:15.817Z,7.80
2022-08-28T07:19:46.483Z,12.65
2022-08-28T07:22:16.266Z,7.05
2022-08-28T07:24:46.044Z,5.00
2022-08-28T07:27:19.054Z,5.00
2022-08-28T07:29:47.183Z,4.70
2022-08-28T07:32:17.323Z,6.92
2022-08-28T07:34:47.123Z,8.00
2022-08-28T07:37:19.021Z,9.23
2022-08-28T07:39:48.781Z,8.83
2022-08-28T07:42:19.918Z,5.53
2022-08-28T07:44:49.716Z,9.87
2022-08-28T07:47:20.121Z,7.30
2022-08-28T07:49:50.130Z,8.60
2022-08-28T07:52:19.844Z,7.80
2022-08-28T07:54:49.647Z,3.57
2022-08-28T07:57:21.144Z,4.43
2022-08-28T07:59:52.589Z,7.27
2022-08-28T08:02:22.275Z,6.33
2022-08-28T08:04:52.104Z,7.40
2022-08-28T08:07:22.051Z,6.50
2022-08-28T08:09:51.841Z,5.80
2022-08-28T08:12:21.315Z,6.60
2022-08-28T08:14:51.251Z,4.03
2022-08-28T08:17:21.098Z,8.17
2022-08-28T08:19:50.912Z,5.00
2022-08-28T08:22:20.683Z,4.92
2022-08-28T08:24:50.446Z,6.43
2022-08-28T08:27:20.260Z,6.10
2022-08-28T08:29:50.901Z,4.67
2022-08-28T08:32:21.056Z,9.88
2022-08-28T08:34:52.739Z,8.53
2022-08-28T08:37:22.528Z,4.50
2022-08-28T08:39:53.765Z,6.50
2022-08-28T08:42:26.296Z,5.17
2022-08-28T08:44:58.851Z,3.20
2022-08-28T08:47:47.092Z,5.27
2022-08-28T08:50:26.299Z,5.75
2022-08-28T08:53:31.932Z,4.13
2022-08-28T08:56:03.386Z,3.50
2022-08-28T08:58:36.268Z,6.63
2022-08-28T09:01:28.447Z,6.37
2022-08-28T09:04:07.212Z,3.63
2022-08-28T09:06:51.933Z,7.13
2022-08-28T09:09:30.472Z,4.33
2022-08-28T09:12:11.692Z,4.80
2022-08-28T09:14:44.505Z,4.33
2022-08-28T09:17:17.299Z,2.30
2022-08-28T09:19:47.323Z,17.17
2022-08-28T09:22:17.000Z,3.20
2022-08-28T09:24:46.836Z,3.73
2022-08-28T09:27:25.695Z,4.07
2022-08-28T09:29:59.068Z,3.12
2022-08-28T09:32:44.633Z,3.07
2022-08-28T09:35:18.870Z,3.02
2022-08-28T09:37:48.927Z,2.12
2022-08-28T09:40:27.313Z,3.00
2022-08-28T09:43:29.958Z,5.70
2022-08-28T09:46:05.727Z,4.33
2022-08-28T09:48:41.111Z,4.63
2022-08-28T09:51:24.720Z,3.80
2022-08-28T09:53:57.244Z,4.25
2022-08-28T09:56:33.341Z,3.83
2022-08-28T10:01:44.757Z,1.92
2022-08-28T10:04:27.731Z,3.27
2022-08-28T10:07:06.495Z,3.33
2022-08-28T10:09:51.332Z,2.20
2022-08-28T10:12:40.575Z,5.27
2022-08-28T10:15:31.463Z,3.80
2022-08-28T10:18:17.361Z,3.00
2022-08-28T10:20:58.625Z,3.33
2022-08-28T10:23:31.396Z,4.63
2022-08-28T10:26:22.448Z,4.05
2022-08-28T10:28:56.523Z,3.43
2022-08-28T10:31:32.662Z,3.93
2022-08-28T10:34:08.338Z,2.95
2022-08-28T10:36:38.167Z,3.93
2022-08-28T10:39:22.624Z,4.77
2022-08-28T10:41:57.856Z,2.43
2022-08-28T10:44:39.666Z,2.37
2022-08-28T10:47:11.587Z,3.30
2022-08-28T10:49:46.898Z,3.00
2022-08-28T10:52:22.882Z,3.25
2022-08-28T10:57:36.097Z,5.47
2022-08-28T11:00:08.232Z,4.20
2022-08-28T11:02:39.428Z,5.70
2022-08-28T11:05:11.143Z,2.62
2022-08-28T11:07:45.010Z,3.27
2022-08-28T11:10:17.823Z,1.77
2022-08-28T11:12:49.397Z,3.00
2022-08-28T11:15:37.488Z,5.50
2022-08-28T11:18:18.672Z,2.35
2022-08-28T11:21:09.452Z,1.62
2022-08-28T11:23:45.150Z,2.77
2022-08-28T11:26:18.255Z,2.67
2022-08-28T11:28:48.425Z,2.20
2022-08-28T11:31:29.128Z,4.07
2022-08-28T11:33:55.356Z,2.03
2022-08-28T11:36:29.798Z,3.37
2022-08-28T11:39:08.387Z,3.17
2022-08-28T11:41:41.386Z,1.32
2022-08-28T11:44:14.324Z,2.25
2022-08-28T11:46:51.729Z,2.30
2022-08-28T11:49:36.341Z,4.45
2022-08-28T11:52:27.404Z,3.02
2022-08-28T11:55:11.983Z,2.03
2022-08-28T11:57:50.487Z,3.43
2022-08-28T12:00:48.681Z,1.33
2022-08-28T12:03:27.572Z,4.00
2022-08-28T12:06:00.057Z,3.43
2022-08-28T12:08:54.912Z,2.50
2022-08-28T12:11:45.580Z,9.07
2022-08-28T12:14:29.978Z,1.75
2022-08-28T12:17:17.391Z,1.20
2022-08-28T12:19:56.367Z,2.67
2022-08-28T12:22:29.352Z,3.50
2022-08-28T12:25:02.309Z,7.40
2022-08-28T12:27:33.080Z,6.60
2022-08-28T12:30:03.799Z,7.40
2022-08-28T12:32:36.605Z,1.00
2022-08-28T12:35:23.042Z,2.78
2022-08-28T12:37:58.873Z,1.93
2022-08-28T12:43:15.483Z,1.42
2022-08-28T12:45:56.411Z,4.20
2022-08-28T12:48:31.010Z,1.67
2022-08-28T12:51:09.111Z,1.77
2022-08-28T12:53:42.137Z,4.13
2022-08-28T12:56:13.645Z,3.00
2022-08-28T12:58:44.442Z,3.55
2022-08-28T13:01:17.648Z,3.13
2022-08-28T13:03:53.369Z,2.83
2022-08-28T13:06:38.077Z,1.92
2022-08-28T13:09:13.592Z,2.63
2022-08-28T13:11:49.080Z,2.33
2022-08-28T13:14:43.018Z,3.65
2022-08-28T13:17:14.776Z,2.43
2022-08-28T13:19:44.709Z,3.20
2022-08-28T13:22:35.508Z,2.83
2022-08-28T13:25:06.960Z,4.28
2022-08-28T13:27:38.452Z,3.50
2022-08-28T13:30:20.997Z,2.40
2022-08-28T13:33:03.073Z,2.10
2022-08-28T13:35:39.946Z,3.75
2022-08-28T13:38:13.985Z,1.94
2022-08-28T13:40:59.650Z,3.00
2022-08-28T13:43:32.860Z,2.90
2022-08-28T13:46:02.978Z,3.12
2022-08-28T13:48:32.763Z,2.47
2022-08-28T13:51:10.823Z,5.90
2022-08-28T13:53:41.213Z,1.63
2022-08-28T13:56:11.742Z,2.88
2022-08-28T13:58:41.516Z,2.73
2022-08-28T14:01:12.743Z,2.77
2022-08-28T14:03:42.837Z,1.50
2022-08-28T14:06:18.900Z,1.87
2022-08-28T14:08:49.237Z,1.00
2022-08-28T14:11:18.996Z,1.07
2022-08-28T14:13:55.713Z,3.17
2022-08-28T14:16:20.317Z,2.80
2022-08-28T14:18:51.765Z,3.30
2022-08-28T14:21:24.233Z,1.67
2022-08-28T14:23:54.177Z,1.73
2022-08-28T14:26:24.060Z,4.92
2022-08-28T14:28:53.900Z,2.27
2022-08-28T14:31:24.722Z,4.23
2022-08-28T14:33:55.671Z,2.00
2022-08-28T14:36:28.228Z,1.00
2022-08-28T14:39:04.097Z,2.70
2022-08-28T14:41:31.878Z,3.72
2022-08-28T14:44:02.367Z,3.30
2022-08-28T14:46:35.517Z,3.67
2022-08-28T14:49:08.993Z,5.20
2022-08-28T14:51:41.480Z,1.70
2022-08-28T14:54:14.020Z,3.37
2022-08-28T14:56:45.532Z,4.40
2022-08-28T14:59:23.805Z,4.77
2022-08-28T15:01:51.112Z,2.50
2022-08-28T15:04:23.550Z,1.93
2022-08-28T15:06:59.174Z,2.23
2022-08-28T15:09:29.135Z,2.37
2022-08-28T15:11:58.898Z,4.57
2022-08-28T15:14:28.768Z,1.57
2022-08-28T15:16:58.415Z,5.75
2022-08-28T15:19:29.923Z,4.23
2022-08-28T15:21:59.693Z,4.60
2022-08-28T15:24:33.026Z,1.25
2022-08-28T15:27:03.311Z,2.43
2022-08-28T15:29:33.102Z,4.10
2022-08-28T15:32:03.874Z,4.33
2022-08-28T15:34:33.633Z,3.17
2022-08-28T15:37:03.799Z,1.80
2022-08-28T15:39:53.368Z,2.77
2022-08-28T15:42:23.374Z,4.00
2022-08-28T15:44:53.209Z,3.37
2022-08-28T15:47:22.976Z,3.50
2022-08-28T15:49:57.217Z,2.53
2022-08-28T15:52:27.669Z,3.33
2022-08-28T15:54:57.444Z,4.77
2022-08-28T15:57:27.209Z,1.67
2022-08-28T15:59:57.040Z,4.50
2022-08-28T16:02:27.946Z,3.00
2022-08-28T16:04:58.131Z,2.40
2022-08-28T16:07:27.889Z,2.97
2022-08-28T16:09:57.658Z,4.07
2022-08-28T16:12:27.133Z,3.00
2022-08-28T16:14:57.562Z,3.23
2022-08-28T16:17:27.802Z,2.77
2022-08-28T16:19:58.437Z,2.00
2022-08-28T16:22:27.985Z,2.40
2022-08-28T16:24:58.045Z,2.65
2022-08-28T16:27:27.916Z,3.40
2022-08-28T16:29:57.753Z,2.33
2022-08-28T16:32:27.709Z,3.50
2022-08-28T16:34:57.483Z,2.53
2022-08-28T16:37:38.319Z,3.87
2022-08-28T16:39:58.476Z,3.20
2022-08-28T16:42:32.298Z,2.08
2022-08-28T16:44:59.875Z,1.55
2022-08-28T16:47:32.952Z,3.83
2022-08-28T16:50:05.648Z,2.08
2022-08-28T16:52:35.967Z,4.80
2022-08-28T16:55:08.841Z,2.50
2022-08-28T16:57:39.350Z,3.47
2022-08-28T17:00:13.730Z,4.45
2022-08-28T17:02:44.705Z,2.90
2022-08-28T17:05:15.780Z,3.27
2022-08-28T17:07:45.529Z,4.03
2022-08-28T17:10:17.619Z,2.67
2022-08-28T17:12:47.669Z,2.98
2022-08-28T17:15:17.970Z,5.17
2022-08-28T17:17:47.731Z,2.93
2022-08-28T17:20:35.001Z,4.50
2022-08-28T17:23:05.788Z,3.70
2022-08-28T17:25:35.575Z,2.80
2022-08-28T17:28:06.472Z,2.97
2022-08-28T17:30:36.243Z,4.37
2022-08-28T17:33:07.039Z,3.27
2022-08-28T17:35:41.923Z,2.40
2022-08-28T17:38:09.501Z,4.37
2022-08-28T17:40:39.380Z,5.30
2022-08-28T17:43:09.536Z,5.80
2022-08-28T17:45:39.372Z,3.27
2022-08-28T17:48:09.894Z,5.28
2022-08-28T17:50:40.027Z,3.43
2022-08-28T17:53:09.935Z,4.83
2022-08-28T17:55:39.707Z,2.83
2022-08-28T17:58:11.768Z,4.12
2022-08-28T18:00:42.382Z,5.50
2022-08-28T18:03:12.479Z,2.37
2022-08-28T18:05:42.418Z,2.43
2022-08-28T18:08:12.004Z,5.60
2022-08-28T18:10:42.123Z,2.70
2022-08-28T18:13:11.597Z,1.75
2022-08-28T18:15:41.432Z,2.55
2022-08-28T18:18:13.742Z,4.60
2022-08-28T18:20:43.711Z,2.23
2022-08-28T18:23:13.779Z,2.72
2022-08-28T18:25:50.845Z,5.20
2022-08-28T18:28:22.336Z,4.10
2022-08-28T18:30:52.827Z,3.43
2022-08-28T18:33:24.935Z,4.08
2022-08-28T18:35:54.849Z,4.17
2022-08-28T18:38:28.316Z,1.42
2022-08-28T18:40:59.591Z,2.80
2022-08-28T18:43:29.685Z,2.37
2022-08-28T18:46:02.013Z,4.30
2022-08-28T18:48:33.171Z,4.27
2022-08-28T18:51:04.908Z,1.40
2022-08-28T18:53:35.311Z,1.53
2022-08-28T18:56:06.604Z,4.80
2022-08-28T18:58:36.712Z,3.43
2022-08-28T19:01:08.117Z,4.67
2022-08-28T19:03:38.014Z,3.13
2022-08-28T19:06:10.957Z,4.67
2022-08-28T19:08:41.162Z,3.17
2022-08-28T19:11:12.676Z,4.37
2022-08-28T19:13:43.631Z,2.90
2022-08-28T19:16:21.036Z,2.73
2022-08-28T19:18:53.074Z,2.70
2022-08-28T19:21:22.931Z,2.97
2022-08-28T19:23:56.042Z,7.33
2022-08-28T19:26:26.544Z,7.95
2022-08-28T19:28:57.041Z,3.30
2022-08-28T19:31:27.807Z,3.20
2022-08-28T19:33:58.581Z,2.57
2022-08-28T19:36:29.733Z,6.53
2022-08-28T19:39:00.729Z,4.30
2022-08-28T19:41:31.637Z,3.77
2022-08-28T19:44:01.679Z,3.63
2022-08-28T19:46:33.126Z,5.33
2022-08-28T19:49:07.336Z,4.13
2022-08-28T19:51:38.741Z,2.90
2022-08-28T19:54:12.600Z,3.55
2022-08-28T19:56:42.655Z,2.95
2022-08-28T19:59:12.788Z,4.00
2022-08-28T20:01:44.818Z,7.27
2022-08-28T20:04:16.817Z,2.20
2022-08-28T20:06:47.029Z,6.60
2022-08-28T20:09:18.703Z,3.10
2022-08-28T20:11:49.030Z,3.70
2022-08-28T20:14:20.509Z,3.42
2022-08-28T20:16:52.091Z,3.05
2022-08-28T20:19:23.379Z,3.70
2022-08-28T20:21:53.504Z,3.20
2022-08-28T20:24:24.622Z,8.53
2022-08-28T20:26:54.554Z,2.50
2022-08-28T20:29:24.536Z,5.07
2022-08-28T20:31:54.327Z,2.73
2022-08-28T20:34:24.427Z,6.72
2022-08-28T20:36:54.432Z,2.63
2022-08-28T20:39:24.251Z,2.00
2022-08-28T20:41:54.028Z,2.07
2022-08-28T20:44:24.686Z,5.33
2022-08-28T20:46:54.743Z,2.60
2022-08-28T20:49:24.627Z,3.30
2022-08-28T20:51:56.172Z,2.47
2022-08-28T20:54:31.891Z,3.30
2022-08-28T20:57:04.378Z,2.67
2022-08-28T20:59:39.975Z,4.53
2022-08-28T21:02:14.915Z,3.52
2022-08-28T21:04:46.650Z,1.80
2022-08-28T21:07:18.354Z,6.03
2022-08-28T21:10:05.761Z,4.47
2022-08-28T21:12:20.306Z,4.05
2022-08-28T21:14:52.215Z,5.37
2022-08-28T21:17:29.506Z,5.20
2022-08-28T21:19:54.580Z,6.47
2022-08-28T21:22:25.552Z,3.85
2022-08-28T21:24:55.599Z,2.35
2022-08-28T21:27:25.266Z,7.42
2022-08-28T21:29:59.813Z,5.10
2022-08-28T21:32:30.711Z,3.50
2022-08-28T21:35:02.150Z,1.82
2022-08-28T21:37:31.911Z,3.50
2022-08-28T21:40:02.075Z,3.83
2022-08-28T21:42:31.862Z,3.00
2022-08-28T21:45:02.059Z,4.70
2022-08-28T21:47:31.900Z,6.37
2022-08-28T21:50:01.753Z,1.43
2022-08-28T21:52:32.966Z,4.53
2022-08-28T21:55:09.009Z,2.97
2022-08-28T21:57:38.839Z,5.10
2022-08-28T22:00:15.858Z,3.88
2022-08-28T22:02:46.203Z,3.93
2022-08-28T22:05:16.828Z,6.58
2022-08-28T22:07:46.600Z,5.53
2022-08-28T22:10:16.332Z,4.03
2022-08-28T22:12:46.116Z,3.90
2022-08-28T22:15:15.906Z,3.75
2022-08-28T22:17:45.844Z,2.80
2022-08-28T22:20:16.261Z,4.28
2022-08-28T22:23:03.720Z,4.40
2022-08-28T22:25:33.252Z,3.57
2022-08-28T22:28:06.484Z,3.17
2022-08-28T22:30:36.928Z,3.63
2022-08-28T22:33:06.723Z,4.20
2022-08-28T22:35:36.489Z,3.27
2022-08-28T22:38:08.109Z,4.42
2022-08-28T22:40:37.982Z,2.03
2022-08-28T22:43:07.810Z,4.00
2022-08-28T22:45:37.617Z,4.33
2022-08-28T22:48:10.288Z,3.83
2022-08-28T22:50:40.091Z,3.77
2022-08-28T22:53:10.193Z,4.40
2022-08-28T22:55:43.463Z,4.62
2022-08-28T22:58:13.004Z,4.43
2022-08-28T23:00:43.591Z,5.93
2022-08-28T23:03:13.773Z,5.37
2022-08-28T23:05:43.561Z,6.03
2022-08-28T23:08:13.610Z,4.30
2022-08-28T23:10:58.354Z,4.25
2022-08-28T23:13:15.159Z,4.77
2022-08-28T23:15:45.100Z,5.57
2022-08-28T23:18:16.155Z,4.27
2022-08-28T23:20:46.785Z,4.17
2022-08-28T23:23:18.282Z,4.53
2022-08-28T23:25:49.580Z,5.20
2022-08-28T23:28:19.899Z,4.20
2022-08-28T23:30:50.063Z,3.87
2022-08-28T23:33:23.961Z,5.93
2022-08-28T23:35:52.091Z,5.97
2022-08-28T23:38:21.941Z,3.05
2022-08-28T23:40:51.765Z,7.80
2022-08-28T23:43:21.726Z,2.23
2022-08-28T23:45:52.154Z,4.93
2022-08-28T23:48:21.919Z,5.60
2022-08-28T23:50:51.961Z,5.97
2022-08-28T23:53:21.896Z,5.43
2022-08-28T23:55:51.660Z,3.90
2022-08-28T23:58:22.533Z,5.53
